createdAt,value
2022-09-18T00:00:06.913Z,75.96
2022-09-18T00:02:33.254Z,76.97
2022-09-18T00:04:59.730Z,76.84
2022-09-18T00:07:26.037Z,76.79
2022-09-18T00:09:52.357Z,77.05
2022-09-18T00:12:18.637Z,77.22
2022-09-18T00:14:44.920Z,77.12
2022-09-18T00:17:11.236Z,77.41
2022-09-18T00:19:37.592Z,76.53
2022-09-18T00:22:03.891Z,77.70
2022-09-18T00:24:30.516Z,77.30
2022-09-18T00:26:56.888Z,76.87
2022-09-18T00:29:23.257Z,77.08
2022-09-18T00:31:49.710Z,76.94
2022-09-18T00:34:18.001Z,77.09
2022-09-18T00:36:44.390Z,76.96
2022-09-18T00:39:10.892Z,76.71
2022-09-18T00:41:41.182Z,77.20
2022-09-18T00:44:22.484Z,77.43
2022-09-18T00:46:48.903Z,78.24
2022-09-18T00:49:17.030Z,78.29
2022-09-18T00:51:44.726Z,78.18
2022-09-18T00:54:17.016Z,78.75
2022-09-18T00:56:44.384Z,78.24
2022-09-18T00:59:12.492Z,78.43
2022-09-18T01:01:38.853Z,78.09
2022-09-18T01:04:09.998Z,79.01
2022-09-18T01:06:45.773Z,79.04
2022-09-18T01:09:28.556Z,78.98
2022-09-18T01:12:15.532Z,78.93
2022-09-18T01:15:05.078Z,78.91
2022-09-18T01:17:35.435Z,79.23
2022-09-18T01:20:24.472Z,78.32
2022-09-18T01:22:59.858Z,77.69
2022-09-18T01:25:45.065Z,78.06
2022-09-18T01:28:18.163Z,77.90
2022-09-18T01:30:45.577Z,77.82
2022-09-18T01:33:33.423Z,77.78
2022-09-18T01:36:01.794Z,77.52
2022-09-18T01:38:48.425Z,77.42
2022-09-18T01:41:19.991Z,77.21
2022-09-18T01:43:48.449Z,77.80
2022-09-18T01:46:16.508Z,76.74
2022-09-18T01:48:46.303Z,76.85
2022-09-18T01:51:18.306Z,77.43
2022-09-18T01:53:48.067Z,77.77
2022-09-18T01:56:22.009Z,77.89
2022-09-18T01:58:49.670Z,78.06
2022-09-18T02:01:17.110Z,77.58
2022-09-18T02:03:48.036Z,78.42
2022-09-18T02:06:20.624Z,78.14
2022-09-18T02:08:51.397Z,78.72
2022-09-18T02:11:19.201Z,79.01
2022-09-18T02:13:51.521Z,78.38
2022-09-18T02:16:21.131Z,78.42
2022-09-18T02:18:50.251Z,78.71
2022-09-18T02:21:20.771Z,78.47
2022-09-18T02:23:47.276Z,78.97
2022-09-18T02:26:14.445Z,78.74
2022-09-18T02:28:41.781Z,78.30
2022-09-18T02:31:08.144Z,78.00
2022-09-18T02:33:35.608Z,78.35
2022-09-18T02:36:14.165Z,78.69
2022-09-18T02:38:56.110Z,77.80
2022-09-18T02:41:34.597Z,78.23
2022-09-18T02:44:10.003Z,78.69
2022-09-18T02:46:36.317Z,78.22
2022-09-18T02:49:14.615Z,78.44
2022-09-18T02:51:48.145Z,77.89
2022-09-18T02:54:17.524Z,78.67
2022-09-18T02:56:56.333Z,78.49
2022-09-18T02:59:51.703Z,78.35
2022-09-18T03:02:19.630Z,77.71
2022-09-18T03:04:46.064Z,78.08
2022-09-18T03:07:14.580Z,77.87
2022-09-18T03:09:40.923Z,77.09
2022-09-18T03:12:07.269Z,77.67
2022-09-18T03:14:33.566Z,77.16
2022-09-18T03:16:59.874Z,76.95
2022-09-18T03:19:26.165Z,77.22
2022-09-18T03:21:52.880Z,77.05
2022-09-18T03:24:19.889Z,76.91
2022-09-18T03:26:46.388Z,76.35
2022-09-18T03:29:13.484Z,76.16
2022-09-18T03:31:40.182Z,76.35
2022-09-18T03:34:06.789Z,75.55
2022-09-18T03:36:33.098Z,75.44
2022-09-18T03:38:59.492Z,75.38
2022-09-18T03:41:25.951Z,76.34
2022-09-18T03:43:52.862Z,75.88
2022-09-18T03:46:23.419Z,76.11
2022-09-18T03:48:50.530Z,76.50
2022-09-18T03:51:18.887Z,76.31
2022-09-18T03:53:45.871Z,76.67
2022-09-18T03:56:13.500Z,75.90
2022-09-18T03:58:39.982Z,75.73
2022-09-18T04:01:06.942Z,75.82
2022-09-18T04:03:33.957Z,76.28
2022-09-18T04:06:00.456Z,76.84
2022-09-18T04:08:27.146Z,76.63
2022-09-18T04:10:53.449Z,76.43
2022-09-18T04:13:20.525Z,76.67
2022-09-18T04:15:50.155Z,76.50
2022-09-18T04:18:19.486Z,76.50
2022-09-18T04:20:45.815Z,75.97
2022-09-18T04:23:14.303Z,76.32
2022-09-18T04:25:43.760Z,76.08
2022-09-18T04:28:10.647Z,76.63
2022-09-18T04:30:37.349Z,76.85
2022-09-18T04:33:03.956Z,76.01
2022-09-18T04:35:30.257Z,76.40
2022-09-18T04:37:56.777Z,76.88
2022-09-18T04:40:23.220Z,76.73
2022-09-18T04:42:49.534Z,76.44
2022-09-18T04:45:15.844Z,77.55
2022-09-18T04:47:43.798Z,76.61
2022-09-18T04:50:10.918Z,76.71
2022-09-18T04:52:37.262Z,76.20
2022-09-18T04:55:04.165Z,76.34
2022-09-18T04:57:30.968Z,76.24
2022-09-18T04:59:57.333Z,75.77
2022-09-18T05:02:24.750Z,76.33
2022-09-18T05:04:51.229Z,75.89
2022-09-18T05:07:17.564Z,76.26
2022-09-18T05:09:43.856Z,75.79
2022-09-18T05:12:10.447Z,75.92
2022-09-18T05:14:36.856Z,75.77
2022-09-18T05:17:03.239Z,76.24
2022-09-18T05:19:29.529Z,76.00
2022-09-18T05:21:55.833Z,75.62
2022-09-18T05:24:22.122Z,75.63
2022-09-18T05:26:48.598Z,75.08
2022-09-18T05:29:14.922Z,74.47
2022-09-18T05:31:41.984Z,74.46
2022-09-18T05:34:08.366Z,74.09
2022-09-18T05:36:35.254Z,73.41
2022-09-18T05:39:01.677Z,73.19
2022-09-18T05:41:28.013Z,73.79
2022-09-18T05:43:54.554Z,73.40
2022-09-18T05:46:20.990Z,73.50
2022-09-18T05:48:50.987Z,73.54
2022-09-18T05:51:17.538Z,73.13
2022-09-18T05:53:48.224Z,73.27
2022-09-18T05:56:17.671Z,73.22
2022-09-18T05:58:44.000Z,73.54
2022-09-18T06:01:10.365Z,74.13
2022-09-18T06:03:36.674Z,73.98
2022-09-18T06:06:03.081Z,74.16
2022-09-18T06:08:29.360Z,74.24
2022-09-18T06:10:55.710Z,73.56
2022-09-18T06:13:21.999Z,74.34
2022-09-18T06:15:49.399Z,73.46
2022-09-18T06:18:15.913Z,73.54
2022-09-18T06:20:42.960Z,74.47
2022-09-18T06:23:09.463Z,73.66
2022-09-18T06:25:36.392Z,74.11
2022-09-18T06:28:03.008Z,74.65
2022-09-18T06:30:30.882Z,73.90
2022-09-18T06:33:04.638Z,73.51
2022-09-18T06:35:32.753Z,73.39
2022-09-18T06:38:03.052Z,74.48
2022-09-18T06:40:30.244Z,74.13
2022-09-18T06:42:57.575Z,73.52
2022-09-18T06:45:27.561Z,73.60
2022-09-18T06:47:55.073Z,73.69
2022-09-18T06:50:21.906Z,72.93
2022-09-18T06:52:48.964Z,73.22
2022-09-18T06:55:16.405Z,73.91
2022-09-18T06:57:42.713Z,73.43
2022-09-18T07:00:10.173Z,73.51
2022-09-18T07:02:36.964Z,73.63
2022-09-18T07:05:03.394Z,73.09
2022-09-18T07:07:29.681Z,73.10
2022-09-18T07:09:56.027Z,72.64
2022-09-18T07:12:22.312Z,72.10
2022-09-18T07:14:48.622Z,72.34
2022-09-18T07:17:18.565Z,72.39
2022-09-18T07:19:46.133Z,71.79
2022-09-18T07:22:12.866Z,72.84
2022-09-18T07:24:39.236Z,72.14
2022-09-18T07:27:05.553Z,71.75
2022-09-18T07:29:32.743Z,71.80
2022-09-18T07:31:59.451Z,72.05
2022-09-18T07:34:25.790Z,71.36
2022-09-18T07:36:52.183Z,71.04
2022-09-18T07:39:18.499Z,71.08
2022-09-18T07:41:45.050Z,70.60
2022-09-18T07:44:11.348Z,70.47
2022-09-18T07:46:38.019Z,70.36
2022-09-18T07:49:04.519Z,70.04
2022-09-18T07:51:30.822Z,70.53
2022-09-18T07:53:57.141Z,69.94
2022-09-18T07:56:23.464Z,70.66
2022-09-18T07:58:49.793Z,70.70
2022-09-18T08:01:16.234Z,71.01
2022-09-18T08:03:42.531Z,70.32
2022-09-18T08:06:08.869Z,70.08
2022-09-18T08:08:36.164Z,69.87
2022-09-18T08:11:03.150Z,69.41
2022-09-18T08:13:29.582Z,69.76
2022-09-18T08:15:56.024Z,68.47
2022-09-18T08:18:22.385Z,68.59
2022-09-18T08:20:48.712Z,69.14
2022-09-18T08:23:15.282Z,68.87
2022-09-18T08:25:42.113Z,68.99
2022-09-18T08:28:09.708Z,69.20
2022-09-18T08:30:36.134Z,68.87
2022-09-18T08:33:03.902Z,68.19
2022-09-18T08:35:31.782Z,68.35
2022-09-18T08:37:58.455Z,68.43
2022-09-18T08:40:37.094Z,67.70
2022-09-18T08:43:08.523Z,67.85
2022-09-18T08:45:56.268Z,68.63
2022-09-18T08:48:27.854Z,67.62
2022-09-18T08:51:00.574Z,66.96
2022-09-18T08:53:30.326Z,67.25
2022-09-18T08:55:58.352Z,67.89
2022-09-18T08:58:24.624Z,67.34
2022-09-18T09:00:53.398Z,66.77
2022-09-18T09:03:26.313Z,66.93
2022-09-18T09:06:01.476Z,67.25
2022-09-18T09:08:30.790Z,67.79
2022-09-18T09:11:09.628Z,66.98
2022-09-18T09:13:38.639Z,66.95
2022-09-18T09:16:08.838Z,67.12
2022-09-18T09:18:43.917Z,66.97
2022-09-18T09:21:20.493Z,66.46
2022-09-18T09:24:05.728Z,66.85
2022-09-18T09:26:33.742Z,66.47
2022-09-18T09:29:03.151Z,67.03
2022-09-18T09:31:34.141Z,67.50
2022-09-18T09:34:02.984Z,66.90
2022-09-18T09:36:30.193Z,65.18
2022-09-18T09:38:56.555Z,65.08
2022-09-18T09:41:55.266Z,64.24
2022-09-18T09:44:31.529Z,63.79
2022-09-18T09:46:57.969Z,63.85
2022-09-18T09:49:25.838Z,63.12
2022-09-18T09:52:15.585Z,63.14
2022-09-18T09:54:42.780Z,62.37
2022-09-18T09:57:15.215Z,63.94
2022-09-18T10:00:01.993Z,63.48
2022-09-18T10:02:34.377Z,63.43
2022-09-18T10:05:12.839Z,64.11
2022-09-18T10:07:57.625Z,63.54
2022-09-18T10:10:27.250Z,63.16
2022-09-18T10:12:56.845Z,63.94
2022-09-18T10:15:41.851Z,63.79
2022-09-18T10:18:16.238Z,62.22
2022-09-18T10:20:43.946Z,61.88
2022-09-18T10:23:15.047Z,61.84
2022-09-18T10:25:59.619Z,62.98
2022-09-18T10:28:29.221Z,62.51
2022-09-18T10:31:00.659Z,63.76
2022-09-18T10:33:37.869Z,62.61
2022-09-18T10:36:10.042Z,61.73
2022-09-18T10:38:39.264Z,62.61
2022-09-18T10:41:25.922Z,62.78
2022-09-18T10:43:54.240Z,62.25
2022-09-18T10:46:27.870Z,63.09
2022-09-18T10:48:54.608Z,63.67
2022-09-18T10:51:21.851Z,62.10
2022-09-18T10:54:23.117Z,61.77
2022-09-18T10:56:49.836Z,61.98
2022-09-18T10:59:28.456Z,62.20
2022-09-18T11:02:02.856Z,62.53
2022-09-18T11:04:29.844Z,61.68
2022-09-18T11:06:57.006Z,59.56
2022-09-18T11:09:36.176Z,59.52
2022-09-18T11:12:02.727Z,60.91
2022-09-18T11:14:32.646Z,59.38
2022-09-18T11:17:00.723Z,60.20
2022-09-18T11:19:32.279Z,59.58
2022-09-18T11:22:06.692Z,60.14
2022-09-18T11:24:34.640Z,60.34
2022-09-18T11:27:01.830Z,59.62
2022-09-18T11:29:32.181Z,60.47
2022-09-18T11:32:01.363Z,59.97
2022-09-18T11:34:29.793Z,60.06
2022-09-18T11:36:58.861Z,60.46
2022-09-18T11:39:36.547Z,58.88
2022-09-18T11:42:07.980Z,60.26
2022-09-18T11:44:34.617Z,60.29
2022-09-18T11:47:19.312Z,59.21
2022-09-18T11:49:51.657Z,56.61
2022-09-18T11:52:21.638Z,55.17
2022-09-18T11:54:51.904Z,56.67
2022-09-18T11:57:25.056Z,55.45
2022-09-18T12:00:11.601Z,56.14
2022-09-18T12:02:47.475Z,57.13
2022-09-18T12:05:23.367Z,57.18
2022-09-18T12:07:54.184Z,56.92
2022-09-18T12:10:29.533Z,56.95
2022-09-18T12:13:15.017Z,59.12
2022-09-18T12:15:43.805Z,58.99
2022-09-18T12:18:19.935Z,59.83
2022-09-18T12:20:48.618Z,59.46
2022-09-18T12:23:16.534Z,58.30
2022-09-18T12:26:03.196Z,58.58
2022-09-18T12:28:39.717Z,61.14
2022-09-18T12:31:20.080Z,60.58
2022-09-18T12:33:49.229Z,61.76
2022-09-18T12:36:34.438Z,62.20
2022-09-18T12:39:01.514Z,62.13
2022-09-18T12:41:50.149Z,61.45
2022-09-18T12:44:26.000Z,62.03
2022-09-18T12:46:52.293Z,61.43
2022-09-18T12:49:37.148Z,60.79
2022-09-18T12:52:15.751Z,59.60
2022-09-18T12:54:48.061Z,59.54
2022-09-18T12:57:17.432Z,59.62
2022-09-18T12:59:59.164Z,58.91
2022-09-18T13:02:25.469Z,58.70
2022-09-18T13:05:00.751Z,59.45
2022-09-18T13:07:31.578Z,58.48
2022-09-18T13:10:00.623Z,58.04
2022-09-18T13:12:30.260Z,59.48
2022-09-18T13:15:02.970Z,59.35
2022-09-18T13:17:36.206Z,60.79
2022-09-18T13:20:07.055Z,59.08
2022-09-18T13:22:36.638Z,59.81
2022-09-18T13:25:04.560Z,59.81
2022-09-18T13:27:31.758Z,59.85
2022-09-18T13:29:59.609Z,59.63
2022-09-18T13:32:36.605Z,60.43
2022-09-18T13:35:13.163Z,59.94
2022-09-18T13:37:40.541Z,58.75
2022-09-18T13:40:26.166Z,57.45
2022-09-18T13:42:53.700Z,58.25
2022-09-18T13:45:21.656Z,57.30
2022-09-18T13:48:06.413Z,56.77
2022-09-18T13:50:34.344Z,57.22
2022-09-18T13:53:01.212Z,57.46
2022-09-18T13:55:33.012Z,57.90
2022-09-18T13:58:25.537Z,58.10
2022-09-18T14:00:52.447Z,57.08
2022-09-18T14:03:18.782Z,55.79
2022-09-18T14:05:45.364Z,57.10
2022-09-18T14:08:11.736Z,56.38
2022-09-18T14:11:04.984Z,56.15
2022-09-18T14:13:39.668Z,57.08
2022-09-18T14:16:08.966Z,55.99
2022-09-18T14:18:44.516Z,56.02
2022-09-18T14:21:17.150Z,56.21
2022-09-18T14:23:46.462Z,55.71
2022-09-18T14:26:39.016Z,54.39
2022-09-18T14:29:08.331Z,56.53
2022-09-18T14:31:37.888Z,56.03
2022-09-18T14:34:27.334Z,56.77
2022-09-18T14:36:55.317Z,57.72
2022-09-18T14:39:25.596Z,57.95
2022-09-18T14:41:53.248Z,58.11
2022-09-18T14:44:19.676Z,58.72
2022-09-18T14:46:52.996Z,58.41
2022-09-18T14:49:26.789Z,57.58
2022-09-18T14:52:03.667Z,58.89
2022-09-18T14:54:31.071Z,58.24
2022-09-18T14:56:59.900Z,59.22
2022-09-18T14:59:26.676Z,60.00
2022-09-18T15:01:53.076Z,60.61
2022-09-18T15:04:25.799Z,58.48
2022-09-18T15:06:56.402Z,59.73
2022-09-18T15:09:28.497Z,60.03
2022-09-18T15:12:03.173Z,61.33
2022-09-18T15:14:40.538Z,63.10
2022-09-18T15:17:23.108Z,63.89
2022-09-18T15:20:09.274Z,63.45
2022-09-18T15:22:35.607Z,65.58
2022-09-18T15:25:02.158Z,64.97
2022-09-18T15:27:29.763Z,64.83
2022-09-18T15:29:59.164Z,64.38
2022-09-18T15:32:28.131Z,64.68
2022-09-18T15:34:54.970Z,64.90
2022-09-18T15:37:24.094Z,64.13
2022-09-18T15:40:05.386Z,63.63
2022-09-18T15:42:50.732Z,62.42
2022-09-18T15:45:18.682Z,62.28
2022-09-18T15:47:45.257Z,60.95
2022-09-18T15:50:11.585Z,61.48
2022-09-18T15:52:48.006Z,60.92
2022-09-18T15:55:22.025Z,61.18
2022-09-18T15:57:49.489Z,60.96
2022-09-18T16:00:23.209Z,61.58
2022-09-18T16:02:54.179Z,62.03
2022-09-18T16:05:21.356Z,60.28
2022-09-18T16:07:57.546Z,61.28
2022-09-18T16:10:40.974Z,61.17
2022-09-18T16:13:13.158Z,60.75
2022-09-18T16:15:40.401Z,61.22
2022-09-18T16:18:16.022Z,60.86
2022-09-18T16:20:49.712Z,61.08
2022-09-18T16:23:16.327Z,62.03
2022-09-18T16:25:43.707Z,62.36
2022-09-18T16:28:22.466Z,61.64
2022-09-18T16:30:48.891Z,62.85
2022-09-18T16:33:19.789Z,62.95
2022-09-18T16:35:47.045Z,63.07
2022-09-18T16:38:13.549Z,62.97
2022-09-18T16:40:40.903Z,63.21
2022-09-18T16:43:07.276Z,62.98
2022-09-18T16:45:33.656Z,63.43
2022-09-18T16:48:00.809Z,63.39
2022-09-18T16:50:27.405Z,63.95
2022-09-18T16:52:54.056Z,63.53
2022-09-18T16:55:20.786Z,63.38
2022-09-18T16:57:47.323Z,63.51
2022-09-18T17:00:13.899Z,65.08
2022-09-18T17:02:40.308Z,65.82
2022-09-18T17:05:06.960Z,67.22
2022-09-18T17:07:33.956Z,68.01
2022-09-18T17:10:00.264Z,68.54
2022-09-18T17:12:26.586Z,69.29
2022-09-18T17:14:52.891Z,69.38
2022-09-18T17:17:19.639Z,69.53
2022-09-18T17:19:46.043Z,69.04
2022-09-18T17:22:12.407Z,69.87
2022-09-18T17:24:38.779Z,69.37
2022-09-18T17:27:05.108Z,70.25
2022-09-18T17:29:31.642Z,70.14
2022-09-18T17:31:57.961Z,70.97
2022-09-18T17:34:24.356Z,71.01
2022-09-18T17:36:50.641Z,71.35
2022-09-18T17:39:17.040Z,71.34
2022-09-18T17:41:43.409Z,71.26
2022-09-18T17:44:09.981Z,71.33
2022-09-18T17:46:36.363Z,71.28
2022-09-18T17:49:02.838Z,71.37
2022-09-18T17:51:29.420Z,71.18
2022-09-18T17:53:59.901Z,70.95
2022-09-18T17:56:32.503Z,70.62
2022-09-18T17:59:00.186Z,69.90
2022-09-18T18:01:27.690Z,69.74
2022-09-18T18:03:54.361Z,70.13
2022-09-18T18:06:21.850Z,69.91
2022-09-18T18:08:48.606Z,70.61
2022-09-18T18:11:17.095Z,69.37
2022-09-18T18:13:44.512Z,70.37
2022-09-18T18:16:15.351Z,70.74
2022-09-18T18:18:42.615Z,71.09
2022-09-18T18:21:09.472Z,71.18
2022-09-18T18:23:38.401Z,70.61
2022-09-18T18:26:08.541Z,71.03
2022-09-18T18:28:36.246Z,70.80
2022-09-18T18:31:06.287Z,71.06
2022-09-18T18:33:34.235Z,71.62
2022-09-18T18:36:14.483Z,71.53
2022-09-18T18:38:41.823Z,72.30
2022-09-18T18:41:08.686Z,72.29
2022-09-18T18:43:35.870Z,71.92
2022-09-18T18:46:02.853Z,72.28
2022-09-18T18:48:32.245Z,72.42
2022-09-18T18:51:05.199Z,71.98
2022-09-18T18:53:32.297Z,72.44
2022-09-18T18:56:05.522Z,72.57
2022-09-18T18:58:32.105Z,72.58
2022-09-18T19:01:08.286Z,72.42
2022-09-18T19:03:39.841Z,71.54
2022-09-18T19:06:06.445Z,71.84
2022-09-18T19:08:34.407Z,72.25
2022-09-18T19:11:03.773Z,71.73
2022-09-18T19:13:41.103Z,71.95
2022-09-18T19:16:07.780Z,73.14
2022-09-18T19:18:34.207Z,73.02
2022-09-18T19:21:00.551Z,73.62
2022-09-18T19:23:26.854Z,72.88
2022-09-18T19:25:57.090Z,73.25
2022-09-18T19:28:23.999Z,73.14
2022-09-18T19:30:53.631Z,73.37
2022-09-18T19:33:21.105Z,72.99
2022-09-18T19:35:47.523Z,72.73
2022-09-18T19:38:16.122Z,72.86
2022-09-18T19:40:42.645Z,72.96
2022-09-18T19:43:12.976Z,73.12
2022-09-18T19:45:39.897Z,73.21
2022-09-18T19:48:10.099Z,73.33
2022-09-18T19:50:37.909Z,73.80
2022-09-18T19:53:04.281Z,73.32
2022-09-18T19:55:30.904Z,74.43
2022-09-18T19:57:57.998Z,74.10
2022-09-18T20:00:24.619Z,74.48
2022-09-18T20:02:51.076Z,73.93
2022-09-18T20:05:17.473Z,73.43
2022-09-18T20:07:44.007Z,73.28
2022-09-18T20:10:11.842Z,72.48
2022-09-18T20:12:40.012Z,72.95
2022-09-18T20:15:06.791Z,72.98
2022-09-18T20:17:33.108Z,73.34
2022-09-18T20:19:59.576Z,73.72
2022-09-18T20:22:26.844Z,74.33
2022-09-18T20:24:53.935Z,73.29
2022-09-18T20:27:20.985Z,73.77
2022-09-18T20:29:47.342Z,74.44
2022-09-18T20:32:13.734Z,74.83
2022-09-18T20:34:40.088Z,74.90
2022-09-18T20:37:07.339Z,75.32
2022-09-18T20:39:33.682Z,75.52
2022-09-18T20:42:00.597Z,75.72
2022-09-18T20:44:27.384Z,76.04
2022-09-18T20:46:57.957Z,76.24
2022-09-18T20:49:24.848Z,75.72
2022-09-18T20:51:51.437Z,76.23
2022-09-18T20:54:23.149Z,76.55
2022-09-18T20:56:49.474Z,76.13
2022-09-18T20:59:16.763Z,76.88
2022-09-18T21:01:43.947Z,77.24
2022-09-18T21:04:17.251Z,77.96
2022-09-18T21:06:45.206Z,77.06
2022-09-18T21:09:11.610Z,77.44
2022-09-18T21:11:39.279Z,78.24
2022-09-18T21:14:06.457Z,79.41
2022-09-18T21:16:35.086Z,78.29
2022-09-18T21:19:03.481Z,78.09
2022-09-18T21:21:30.914Z,76.90
2022-09-18T21:23:58.553Z,76.74
2022-09-18T21:26:39.155Z,76.26
2022-09-18T21:29:25.915Z,77.17
2022-09-18T21:31:54.023Z,76.35
2022-09-18T21:34:24.068Z,76.26
2022-09-18T21:36:52.864Z,76.30
2022-09-18T21:39:19.233Z,75.16
2022-09-18T21:41:48.563Z,75.09
2022-09-18T21:44:15.998Z,74.68
2022-09-18T21:46:44.056Z,74.29
2022-09-18T21:49:10.830Z,74.19
2022-09-18T21:51:40.210Z,73.77
2022-09-18T21:54:07.132Z,74.40
2022-09-18T21:56:35.444Z,74.97
2022-09-18T21:59:01.764Z,74.37
2022-09-18T22:01:31.998Z,74.03
2022-09-18T22:03:59.256Z,74.12
2022-09-18T22:06:26.761Z,74.41
2022-09-18T22:08:54.520Z,74.46
2022-09-18T22:11:24.099Z,74.92
2022-09-18T22:13:52.495Z,74.68
2022-09-18T22:16:19.495Z,74.65
2022-09-18T22:18:48.390Z,75.33
2022-09-18T22:21:20.174Z,75.88
2022-09-18T22:23:53.613Z,75.42
2022-09-18T22:26:20.620Z,75.92
2022-09-18T22:28:48.832Z,76.31
2022-09-18T22:31:15.169Z,76.56
2022-09-18T22:33:41.555Z,77.06
2022-09-18T22:36:08.044Z,75.96
2022-09-18T22:38:34.340Z,77.20
2022-09-18T22:41:04.380Z,77.20
2022-09-18T22:43:30.712Z,76.28
2022-09-18T22:46:00.865Z,76.94
2022-09-18T22:48:27.162Z,76.59
2022-09-18T22:50:53.452Z,77.31
2022-09-18T22:53:19.728Z,76.87
2022-09-18T22:55:46.022Z,76.43
2022-09-18T22:58:12.309Z,76.64
2022-09-18T23:00:38.572Z,76.43
2022-09-18T23:03:05.585Z,76.78
2022-09-18T23:05:31.867Z,76.55
2022-09-18T23:07:58.149Z,76.65
2022-09-18T23:10:24.492Z,76.01
2022-09-18T23:12:50.767Z,76.44
2022-09-18T23:15:17.069Z,76.82
2022-09-18T23:17:44.230Z,75.98
2022-09-18T23:20:10.589Z,77.46
2022-09-18T23:22:36.983Z,75.90
2022-09-18T23:25:03.374Z,76.37
2022-09-18T23:27:29.656Z,76.97
2022-09-18T23:29:55.920Z,76.10
2022-09-18T23:32:22.201Z,76.04
2022-09-18T23:34:48.484Z,75.72
2022-09-18T23:37:14.759Z,75.23
2022-09-18T23:39:41.172Z,76.90
2022-09-18T23:42:08.797Z,76.41
2022-09-18T23:44:35.091Z,75.57
2022-09-18T23:47:01.600Z,75.74
2022-09-18T23:49:28.704Z,77.81
2022-09-18T23:51:55.143Z,76.11
2022-09-18T23:54:23.296Z,76.09
2022-09-18T23:56:49.766Z,77.00
2022-09-18T23:59:21.913Z,75.84
